James M Cox Dayton International Airport Dayton US
ICAO: KDAY
IATA: DAY
Category: Large
Scheduled Services: Yes

Elevation: 1009 ft
TransAlt. 18000 ft.

Airport Communications:
DAYTON APP/DEP:118
ATIS:125.8
CLNC DEL:121.75
GND:121.9
DAYTON RDO:122.2
DAYTON TWR:119.9
UNICOM:122.95

KDAY Zoom In..

If you have problems with the map follow the link
https://www.worldairports.se/pages/airport.php?
ICAO=KDAY

Runways:

(A) RW 06L length 10901 ft width 150 ft
ILS 108.90 / hdg 59

(B) RW 06R length 7285 ft width 150 ft
---- / hdg 59

(C) RW 18 length 8502 ft width 150 ft
ILS 108.30 / hdg 183

(D) RW 24L length 7285 ft width 150 ft
ILS 110.30 / hdg 239

(E) RW 24R length 10901 ft width 150 ft
ILS 111.90 / hdg 239

(F) RW 36 length 8502 ft width 150 ft
---- / hdg 3

Location; KDAY
Day. 19 / Time. 15.56 Zulu
* Altimeter: 30.21
* Temperature: -10° c. -14°f.
* Wind from: 290° Speed 14 kn.
Dewpoint: -15° c.
Visibility: 5 Statute Miles.
Clouds: Overcast 2200 ft.
Conditions: Light Snow.

KDAY 191556Z 29014KT 5SM -SN OVC022 M10/M15 A3021 RMK AO2 VIS 2 RWY 6L SLP246 P0000 T11001150 $


Wind From 290°
Speed 14 kn.

 
 
jpsmedia worldairports.se 2020   terms of use